createdAt,value
2023-02-24T00:02:37.874Z,45.60
2023-02-24T00:05:27.623Z,45.60
2023-02-24T00:08:15.938Z,45.60
2023-02-24T00:11:09.862Z,45.70
2023-02-24T00:13:58.201Z,45.70
2023-02-24T00:16:48.097Z,45.70
2023-02-24T00:19:37.276Z,45.70
2023-02-24T00:22:26.794Z,45.70
2023-02-24T00:25:15.692Z,45.80
2023-02-24T00:28:03.851Z,45.70
2023-02-24T00:30:52.341Z,45.70
2023-02-24T00:33:40.715Z,45.70
2023-02-24T00:36:30.549Z,45.70
2023-02-24T00:39:30.747Z,45.70
2023-02-24T00:42:19.371Z,45.70
2023-02-24T00:45:10.406Z,45.70
2023-02-24T00:47:58.817Z,45.70
2023-02-24T00:50:47.169Z,45.70
2023-02-24T00:53:35.583Z,45.70
2023-02-24T00:56:26.863Z,45.70
2023-02-24T00:59:18.665Z,45.70
2023-02-24T01:02:07.995Z,45.70
2023-02-24T01:04:56.491Z,45.70
2023-02-24T01:07:44.888Z,45.70
2023-02-24T01:10:34.575Z,45.70
2023-02-24T01:13:23.214Z,45.70
2023-02-24T01:16:13.243Z,45.80
2023-02-24T01:19:01.510Z,45.80
2023-02-24T01:21:55.224Z,45.90
2023-02-24T01:24:45.101Z,45.80
2023-02-24T01:27:33.325Z,45.80
2023-02-24T01:30:23.164Z,45.80
2023-02-24T01:33:14.716Z,45.90
2023-02-24T01:36:11.513Z,45.80
2023-02-24T01:39:00.549Z,45.80
2023-02-24T01:41:51.098Z,45.80
2023-02-24T01:45:07.153Z,45.80
2023-02-24T01:48:01.414Z,45.90
2023-02-24T01:50:51.378Z,45.80
2023-02-24T01:53:39.713Z,45.80
2023-02-24T01:56:29.639Z,45.90
2023-02-24T01:59:18.955Z,45.80
2023-02-24T02:02:09.764Z,45.80
2023-02-24T02:05:04.610Z,45.80
2023-02-24T02:07:53.682Z,45.90
2023-02-24T02:10:45.475Z,45.80
2023-02-24T02:13:35.962Z,45.80
2023-02-24T02:16:47.352Z,45.80
2023-02-24T02:20:16.068Z,45.80
2023-02-24T02:23:55.180Z,45.90
2023-02-24T02:27:07.618Z,45.90
2023-02-24T02:30:22.032Z,45.80
2023-02-24T02:33:33.834Z,45.80
2023-02-24T02:36:29.580Z,45.80
2023-02-24T02:39:23.999Z,45.80
2023-02-24T02:42:24.336Z,45.80
2023-02-24T02:45:17.908Z,45.70
2023-02-24T02:48:11.501Z,45.70
2023-02-24T02:51:04.936Z,45.70
2023-02-24T02:54:00.331Z,45.70
2023-02-24T02:56:55.106Z,45.70
2023-02-24T02:59:49.374Z,45.80
2023-02-24T03:02:41.415Z,45.80
2023-02-24T03:05:37.256Z,45.80
2023-02-24T03:08:30.677Z,45.80
2023-02-24T03:11:22.132Z,45.70
2023-02-24T03:14:14.037Z,45.70
2023-02-24T03:17:04.623Z,45.70
2023-02-24T03:20:00.833Z,45.70
2023-02-24T03:22:54.968Z,45.70
2023-02-24T03:25:48.656Z,45.70
2023-02-24T03:28:40.816Z,45.70
2023-02-24T03:31:34.632Z,45.70
2023-02-24T03:34:29.107Z,45.70
2023-02-24T03:37:23.999Z,45.70
2023-02-24T03:40:15.977Z,45.70
2023-02-24T03:43:09.265Z,45.60
2023-02-24T03:46:01.323Z,45.60
2023-02-24T03:48:55.937Z,45.60
2023-02-24T03:51:48.863Z,45.70
2023-02-24T03:55:03.176Z,45.60
2023-02-24T03:58:04.426Z,45.60
2023-02-24T04:00:58.890Z,45.50
2023-02-24T04:03:57.782Z,45.50
2023-02-24T04:06:55.799Z,45.50
2023-02-24T04:09:51.172Z,45.50
2023-02-24T04:12:47.136Z,45.50
2023-02-24T04:15:39.825Z,45.50
2023-02-24T04:18:31.036Z,45.50
2023-02-24T04:21:23.144Z,45.50
2023-02-24T04:24:15.837Z,45.50
2023-02-24T04:27:07.485Z,45.40
2023-02-24T04:30:00.559Z,45.40
2023-02-24T04:32:49.709Z,45.40
2023-02-24T04:35:40.520Z,45.40
2023-02-24T04:38:30.133Z,45.40
2023-02-24T04:41:21.530Z,45.40
2023-02-24T04:44:10.243Z,45.40
2023-02-24T04:46:58.507Z,45.50
2023-02-24T04:49:46.802Z,45.30
2023-02-24T04:52:34.981Z,45.30
2023-02-24T04:55:29.554Z,45.20
2023-02-24T04:58:20.374Z,45.20
2023-02-24T05:01:11.722Z,45.20
2023-02-24T05:04:00.263Z,45.20
2023-02-24T05:06:49.342Z,45.20
2023-02-24T05:09:37.729Z,45.20
2023-02-24T05:12:29.502Z,45.20
2023-02-24T05:15:17.923Z,45.20
2023-02-24T05:18:08.414Z,45.20
2023-02-24T05:21:15.537Z,45.20
2023-02-24T05:24:06.936Z,45.20
2023-02-24T05:26:59.131Z,45.10
2023-02-24T05:29:49.646Z,45.20
2023-02-24T05:32:38.481Z,45.00
2023-02-24T05:35:27.094Z,45.10
2023-02-24T05:38:19.745Z,45.00
2023-02-24T05:41:15.162Z,45.00
2023-02-24T05:44:08.621Z,45.00
2023-02-24T05:46:59.527Z,45.00
2023-02-24T05:49:48.125Z,45.00
2023-02-24T05:52:38.073Z,44.90
2023-02-24T05:55:26.382Z,45.00
2023-02-24T05:58:16.165Z,44.90
2023-02-24T06:01:16.355Z,44.90
2023-02-24T06:04:11.013Z,44.90
2023-02-24T06:06:59.330Z,44.90
2023-02-24T06:09:50.346Z,44.80
2023-02-24T06:12:40.042Z,44.80
2023-02-24T06:15:28.728Z,44.90
2023-02-24T06:18:17.518Z,44.90
2023-02-24T06:21:08.409Z,44.80
2023-02-24T06:23:58.191Z,44.80
2023-02-24T06:26:49.327Z,44.80
2023-02-24T06:29:38.312Z,44.70
2023-02-24T06:32:28.073Z,44.60
2023-02-24T06:35:17.462Z,44.60
2023-02-24T06:38:07.505Z,44.40
2023-02-24T06:41:00.753Z,44.40
2023-02-24T06:43:49.143Z,44.40
2023-02-24T06:46:37.818Z,44.50
2023-02-24T06:49:27.052Z,44.40
2023-02-24T06:52:19.048Z,44.40
2023-02-24T06:55:25.333Z,44.40
2023-02-24T06:58:17.877Z,44.40
2023-02-24T07:01:07.174Z,44.30
2023-02-24T07:04:17.911Z,44.20
2023-02-24T07:07:06.440Z,44.30
2023-02-24T07:09:54.727Z,44.30
2023-02-24T07:12:44.974Z,44.20
2023-02-24T07:15:37.111Z,44.20
2023-02-24T07:18:26.655Z,44.10
2023-02-24T07:21:16.574Z,44.20
2023-02-24T07:24:05.177Z,44.20
2023-02-24T07:26:57.788Z,44.20
2023-02-24T07:29:47.699Z,44.20
2023-02-24T07:32:38.452Z,44.20
2023-02-24T07:35:27.038Z,44.20
2023-02-24T07:38:17.483Z,44.10
2023-02-24T07:41:07.401Z,43.90
2023-02-24T07:43:58.931Z,43.90
2023-02-24T07:46:50.160Z,43.90
2023-02-24T07:49:41.019Z,43.90
2023-02-24T07:52:32.568Z,43.90
2023-02-24T07:55:21.004Z,43.90
2023-02-24T07:58:10.715Z,43.80
2023-02-24T08:01:08.745Z,43.80
2023-02-24T08:04:01.527Z,43.80
2023-02-24T08:06:56.020Z,43.70
2023-02-24T08:10:02.253Z,43.60
2023-02-24T08:12:54.465Z,43.50
2023-02-24T08:15:56.209Z,43.30
2023-02-24T08:18:49.051Z,43.10
2023-02-24T08:21:41.354Z,43.00
2023-02-24T08:24:30.182Z,43.20
2023-02-24T08:27:20.257Z,43.10
2023-02-24T08:30:21.264Z,42.90
2023-02-24T08:33:11.729Z,43.10
2023-02-24T08:36:02.599Z,42.60
2023-02-24T08:38:53.378Z,42.40
2023-02-24T08:41:51.522Z,42.30
2023-02-24T08:44:41.631Z,43.80
2023-02-24T08:47:36.085Z,43.30
2023-02-24T08:50:27.382Z,43.70
2023-02-24T08:53:19.711Z,43.30
2023-02-24T08:56:11.736Z,42.70
2023-02-24T08:59:05.915Z,42.50
2023-02-24T09:02:14.771Z,42.10
2023-02-24T09:05:07.547Z,42.30
2023-02-24T09:07:56.207Z,42.10
2023-02-24T09:10:46.372Z,42.30
2023-02-24T09:13:37.470Z,42.00
2023-02-24T09:16:26.658Z,41.70
2023-02-24T09:19:40.524Z,41.50
2023-02-24T09:22:32.500Z,41.60
2023-02-24T09:25:24.143Z,41.60
2023-02-24T09:28:17.412Z,41.30
2023-02-24T09:31:07.565Z,41.10
2023-02-24T09:33:55.888Z,41.40
2023-02-24T09:37:01.546Z,41.20
2023-02-24T09:40:07.479Z,41.30
2023-02-24T09:42:58.462Z,40.90
2023-02-24T09:46:01.783Z,41.10
2023-02-24T09:49:05.395Z,40.40
2023-02-24T09:52:00.781Z,40.70
2023-02-24T09:55:16.017Z,40.70
2023-02-24T09:58:32.015Z,40.90
2023-02-24T10:01:35.967Z,41.00
2023-02-24T10:04:49.278Z,40.80
2023-02-24T10:07:41.210Z,40.60
2023-02-24T10:10:38.114Z,40.30
2023-02-24T10:13:32.585Z,40.40
2023-02-24T10:16:24.953Z,40.20
2023-02-24T10:19:24.358Z,40.40
2023-02-24T10:22:28.505Z,40.30
2023-02-24T10:25:26.755Z,40.50
2023-02-24T10:28:35.718Z,40.40
2023-02-24T10:31:31.243Z,40.60
2023-02-24T10:34:25.354Z,40.40
2023-02-24T10:37:28.120Z,40.40
2023-02-24T10:40:26.653Z,40.10
2023-02-24T10:43:19.523Z,40.10
2023-02-24T10:46:17.163Z,39.90
2023-02-24T10:49:10.038Z,39.80
2023-02-24T10:51:58.880Z,40.10
2023-02-24T10:55:05.332Z,40.10
2023-02-24T10:58:05.925Z,40.10
2023-02-24T11:01:08.669Z,40.30
2023-02-24T11:04:12.587Z,40.40
2023-02-24T11:07:09.794Z,41.10
2023-02-24T11:10:26.289Z,40.80
2023-02-24T11:13:35.696Z,40.90
2023-02-24T11:16:50.049Z,41.10
2023-02-24T11:19:45.365Z,40.90
2023-02-24T11:22:37.824Z,40.90
2023-02-24T11:25:35.557Z,40.90
2023-02-24T11:28:49.028Z,41.00
2023-02-24T11:31:51.987Z,41.10
2023-02-24T11:34:49.656Z,41.00
2023-02-24T11:37:43.398Z,41.10
2023-02-24T11:40:38.613Z,41.10
2023-02-24T11:43:30.878Z,41.20
2023-02-24T11:46:23.069Z,41.20
2023-02-24T11:49:25.952Z,41.20
2023-02-24T11:52:20.046Z,41.30
2023-02-24T11:55:32.603Z,41.30
2023-02-24T11:58:26.628Z,41.40
2023-02-24T12:01:22.475Z,41.50
2023-02-24T12:04:18.735Z,41.50
2023-02-24T12:07:13.050Z,41.50
2023-02-24T12:10:16.739Z,41.50
2023-02-24T12:13:17.727Z,41.50
2023-02-24T12:16:14.794Z,41.60
2023-02-24T12:19:07.563Z,41.70
2023-02-24T12:22:03.183Z,41.60
2023-02-24T12:24:54.745Z,41.70
2023-02-24T12:27:54.863Z,41.70
2023-02-24T12:30:57.745Z,41.70
2023-02-24T12:34:00.400Z,41.80
2023-02-24T12:37:16.434Z,41.80
2023-02-24T12:40:17.202Z,41.80
2023-02-24T12:43:14.897Z,41.80
2023-02-24T12:46:10.664Z,41.90
2023-02-24T12:49:18.551Z,41.90
2023-02-24T12:52:14.675Z,42.00
2023-02-24T12:55:12.678Z,42.00
2023-02-24T12:58:09.232Z,42.00
2023-02-24T13:01:10.820Z,42.00
2023-02-24T13:04:15.396Z,42.10
2023-02-24T13:07:14.076Z,42.10
2023-02-24T13:10:17.945Z,42.10
2023-02-24T13:13:12.023Z,42.10
2023-02-24T13:16:02.168Z,42.20
2023-02-24T13:18:50.532Z,42.20
2023-02-24T13:21:40.227Z,42.20
2023-02-24T13:24:28.697Z,42.20
2023-02-24T13:27:24.006Z,42.20
2023-02-24T13:30:28.007Z,42.30
2023-02-24T13:33:25.804Z,42.40
2023-02-24T13:36:21.654Z,42.30
2023-02-24T13:39:24.445Z,42.40
2023-02-24T13:42:23.746Z,42.50
2023-02-24T13:45:20.820Z,42.50
2023-02-24T13:48:28.259Z,42.50
2023-02-24T13:51:39.026Z,42.60
2023-02-24T13:54:45.365Z,42.60
2023-02-24T13:58:09.197Z,42.60
2023-02-24T14:01:09.654Z,42.70
2023-02-24T14:04:14.503Z,42.70
2023-02-24T14:07:05.990Z,42.80
2023-02-24T14:09:58.685Z,42.80
2023-02-24T14:12:49.158Z,42.80
2023-02-24T14:15:42.867Z,42.90
2023-02-24T14:18:34.323Z,42.90
2023-02-24T14:21:26.937Z,42.90
2023-02-24T14:24:15.421Z,42.90
2023-02-24T14:27:06.512Z,42.90
2023-02-24T14:29:55.682Z,42.90
2023-02-24T14:32:45.410Z,42.90
2023-02-24T14:35:36.702Z,43.00
2023-02-24T14:38:36.008Z,43.00
2023-02-24T14:41:26.263Z,43.00
2023-02-24T14:44:23.844Z,43.00
2023-02-24T14:47:15.437Z,43.00
2023-02-24T14:50:06.787Z,43.00
2023-02-24T14:52:59.471Z,43.00
2023-02-24T14:55:51.245Z,43.10
2023-02-24T14:58:45.910Z,43.00
2023-02-24T15:01:40.406Z,43.00
2023-02-24T15:04:35.159Z,43.00
2023-02-24T15:07:27.027Z,43.10
2023-02-24T15:10:22.611Z,43.10
2023-02-24T15:13:16.757Z,43.10
2023-02-24T15:16:12.715Z,43.10
2023-02-24T15:19:03.072Z,43.10
2023-02-24T15:21:51.279Z,43.20
2023-02-24T15:24:39.629Z,43.10
2023-02-24T15:27:29.578Z,43.10
2023-02-24T15:30:32.234Z,43.20
2023-02-24T15:33:23.443Z,43.20
2023-02-24T15:36:21.566Z,43.20
2023-02-24T15:39:20.657Z,43.20
2023-02-24T15:42:11.173Z,43.20
2023-02-24T15:45:01.264Z,43.30
2023-02-24T15:47:54.894Z,43.20
2023-02-24T15:50:43.293Z,43.20
2023-02-24T15:53:32.991Z,46.30
2023-02-24T15:56:21.895Z,45.40
2023-02-24T15:59:14.023Z,45.00
2023-02-24T16:02:02.386Z,44.80
2023-02-24T16:04:52.068Z,44.70
2023-02-24T16:07:41.049Z,44.50
2023-02-24T16:10:31.724Z,44.40
2023-02-24T16:13:22.454Z,44.40
2023-02-24T16:16:13.908Z,44.30
2023-02-24T16:19:02.181Z,44.30
2023-02-24T16:21:50.481Z,44.20
2023-02-24T16:24:38.791Z,44.10
2023-02-24T16:27:29.730Z,44.10
2023-02-24T16:30:22.145Z,44.10
2023-02-24T16:33:13.614Z,44.10
2023-02-24T16:36:02.074Z,44.10
2023-02-24T16:38:51.794Z,44.00
2023-02-24T16:41:40.324Z,44.00
2023-02-24T16:44:30.013Z,44.00
2023-02-24T16:47:22.355Z,44.10
2023-02-24T16:50:20.121Z,44.00
2023-02-24T16:53:09.804Z,43.90
2023-02-24T16:55:58.390Z,43.90
2023-02-24T16:58:46.970Z,44.00
2023-02-24T17:01:36.672Z,43.90
2023-02-24T17:04:25.861Z,43.90
2023-02-24T17:07:14.647Z,43.90
2023-02-24T17:10:03.047Z,43.90
2023-02-24T17:12:52.170Z,43.80
2023-02-24T17:15:40.500Z,43.90
2023-02-24T17:18:30.392Z,44.00
2023-02-24T17:21:21.796Z,43.80
2023-02-24T17:24:16.092Z,43.80
2023-02-24T17:27:04.572Z,43.80
2023-02-24T17:29:52.853Z,43.80
2023-02-24T17:32:41.530Z,43.80
2023-02-24T17:35:31.557Z,43.80
2023-02-24T17:38:23.285Z,43.80
2023-02-24T17:41:11.657Z,43.80
2023-02-24T17:44:00.381Z,44.50
2023-02-24T17:46:48.929Z,44.30
2023-02-24T17:49:37.308Z,44.30
2023-02-24T17:52:27.316Z,44.40
2023-02-24T17:55:15.772Z,44.40
2023-02-24T17:58:04.132Z,44.40
2023-02-24T18:00:52.424Z,44.30
2023-02-24T18:03:40.718Z,44.30
2023-02-24T18:06:29.112Z,44.20
2023-02-24T18:09:18.747Z,44.20
2023-02-24T18:12:08.555Z,44.20
2023-02-24T18:15:07.783Z,44.20
2023-02-24T18:17:57.459Z,44.20
2023-02-24T18:20:46.245Z,44.20
2023-02-24T18:23:35.214Z,44.20
2023-02-24T18:26:26.293Z,44.20
2023-02-24T18:29:14.790Z,44.20
2023-02-24T18:32:04.325Z,44.20
2023-02-24T18:34:52.627Z,44.20
2023-02-24T18:37:41.128Z,44.20
2023-02-24T18:40:30.497Z,44.10
2023-02-24T18:43:20.216Z,44.10
2023-02-24T18:46:12.436Z,44.10
2023-02-24T18:49:00.760Z,44.20
2023-02-24T18:51:49.522Z,44.10
2023-02-24T18:54:37.750Z,44.10
2023-02-24T18:57:26.102Z,44.10
2023-02-24T19:00:16.939Z,44.00
2023-02-24T19:03:05.385Z,44.10
2023-02-24T19:05:53.840Z,44.10
2023-02-24T19:08:43.381Z,44.00
2023-02-24T19:11:31.798Z,44.00
2023-02-24T19:14:20.142Z,44.00
2023-02-24T19:17:09.856Z,44.00
2023-02-24T19:19:58.108Z,44.10
2023-02-24T19:22:48.745Z,44.10
2023-02-24T19:25:38.853Z,44.10
2023-02-24T19:28:27.335Z,44.00
2023-02-24T19:31:17.656Z,44.10
2023-02-24T19:34:09.300Z,44.10
2023-02-24T19:36:57.537Z,44.00
2023-02-24T19:39:46.276Z,44.00
2023-02-24T19:42:34.620Z,44.10
2023-02-24T19:45:23.030Z,44.10
2023-02-24T19:48:11.508Z,44.10
2023-02-24T19:51:01.701Z,44.10
2023-02-24T19:53:53.560Z,44.10
2023-02-24T19:56:42.034Z,44.10
2023-02-24T19:59:30.447Z,46.40
2023-02-24T20:02:19.053Z,45.90
2023-02-24T20:05:08.662Z,45.60
2023-02-24T20:07:59.323Z,45.50
2023-02-24T20:10:47.738Z,45.30
2023-02-24T20:13:36.080Z,45.30
2023-02-24T20:16:26.415Z,45.20
2023-02-24T20:19:16.261Z,45.20
2023-02-24T20:22:04.650Z,45.20
2023-02-24T20:24:54.558Z,45.20
2023-02-24T20:27:43.158Z,45.10
2023-02-24T20:30:31.516Z,45.10
2023-02-24T20:33:20.096Z,45.00
2023-02-24T20:36:09.585Z,44.90
2023-02-24T20:39:00.033Z,44.90
2023-02-24T20:41:50.746Z,44.90
2023-02-24T20:44:39.199Z,44.90
2023-02-24T20:47:27.525Z,45.00
2023-02-24T20:50:16.129Z,44.90
2023-02-24T20:53:04.600Z,44.80
2023-02-24T20:55:52.951Z,44.90
2023-02-24T20:58:42.716Z,44.90
2023-02-24T21:01:32.078Z,44.80
2023-02-24T21:04:21.954Z,44.80
2023-02-24T21:07:10.239Z,44.70
2023-02-24T21:09:58.617Z,49.40
2023-02-24T21:12:47.397Z,47.60
2023-02-24T21:15:37.113Z,47.10
2023-02-24T21:18:25.562Z,46.90
2023-02-24T21:21:15.351Z,46.60
2023-02-24T21:24:03.683Z,46.40
2023-02-24T21:26:51.947Z,46.30
2023-02-24T21:29:40.382Z,46.20
2023-02-24T21:32:30.659Z,46.10
2023-02-24T21:35:19.274Z,46.00
2023-02-24T21:38:07.804Z,45.90
2023-02-24T21:40:59.484Z,45.80
2023-02-24T21:43:50.618Z,51.80
2023-02-24T21:46:39.220Z,52.50
2023-02-24T21:49:30.356Z,50.90
2023-02-24T21:52:19.974Z,50.10
2023-02-24T21:55:09.833Z,49.70
2023-02-24T21:57:58.236Z,49.30
2023-02-24T22:00:47.540Z,49.00
2023-02-24T22:03:35.973Z,48.80
2023-02-24T22:06:30.946Z,48.50
2023-02-24T22:09:20.635Z,48.30
2023-02-24T22:12:09.085Z,48.20
2023-02-24T22:14:57.429Z,48.00
2023-02-24T22:17:46.009Z,47.90
2023-02-24T22:20:34.610Z,47.70
2023-02-24T22:23:24.267Z,47.60
2023-02-24T22:26:13.313Z,47.50
2023-02-24T22:29:02.943Z,47.30
2023-02-24T22:31:51.535Z,47.20
2023-02-24T22:34:39.855Z,47.10
2023-02-24T22:37:28.249Z,47.00
2023-02-24T22:40:20.485Z,47.00
2023-02-24T22:43:09.246Z,46.90
2023-02-24T22:45:59.167Z,46.90
2023-02-24T22:48:47.865Z,46.80
2023-02-24T22:51:36.557Z,46.70
2023-02-24T22:54:25.020Z,46.60
2023-02-24T22:57:15.321Z,46.60
2023-02-24T23:00:09.698Z,46.50
2023-02-24T23:02:58.204Z,46.40
2023-02-24T23:05:56.392Z,46.30
2023-02-24T23:08:46.959Z,46.30
2023-02-24T23:11:38.336Z,46.30
2023-02-24T23:14:28.123Z,46.20
2023-02-24T23:17:16.457Z,46.20
2023-02-24T23:20:07.272Z,46.10
2023-02-24T23:22:55.960Z,46.10
2023-02-24T23:25:52.345Z,46.00
2023-02-24T23:28:40.913Z,46.00
2023-02-24T23:31:31.226Z,46.00
2023-02-24T23:34:19.909Z,45.90
2023-02-24T23:37:12.086Z,45.90
2023-02-24T23:40:00.356Z,45.90
2023-02-24T23:42:48.761Z,45.80
2023-02-24T23:45:39.596Z,45.80
2023-02-24T23:48:29.349Z,45.80
2023-02-24T23:51:17.983Z,45.80
2023-02-24T23:54:06.469Z,45.70
2023-02-24T23:56:54.647Z,45.70
2023-02-24T23:59:43.061Z,45.70
